Aviation Digital Data Service (ADDS)

Output produced by METARs form (2332 UTC 26 February 2020)
found at http://www.aviationweather.gov/metar/data/
 
METAR text: KCVO 262256Z AUTO 04009KT 10SM CLR 15/07 A3049 RMK AO2 SLP327 T01500072
Conditions at: KCVO (CORVALLIS MUNI A, OR, US) observed 2256 UTC 26 February 2020
Temperature: 15.0°C (59°F)
Dewpoint: 7.2°C (45°F) [RH = 60%]
Pressure (altimeter): 30.49 inches Hg (1032.6 mb)
[Sea-level pressure: 1032.7 mb]
Winds: from the NE (40 degrees) at 10 MPH (9 knots; 4.6 m/s)
Visibility: 10 or more miles (16+ km)
Ceiling: at least 12,000 feet AGL
Clouds: sky clear below 12,000 feet AGL
Weather: automated observation with no human augmentation;
there may or may not be significant weather present at this time

METAR text: KCVO 262156Z AUTO 02003KT 10SM CLR 13/07 A3050 RMK AO2 SLP331 T01330072
Conditions at: KCVO (CORVALLIS MUNI A, OR, US) observed 2156 UTC 26 February 2020
Temperature: 13.3°C (56°F)
Dewpoint: 7.2°C (45°F) [RH = 66%]
Pressure (altimeter): 30.50 inches Hg (1032.9 mb)
[Sea-level pressure: 1033.1 mb]
Winds: from the NNE (20 degrees) at 3 MPH (3 knots; 1.5 m/s)
Visibility: 10 or more miles (16+ km)
Ceiling: at least 12,000 feet AGL
Clouds: sky clear below 12,000 feet AGL
Weather: automated observation with no human augmentation;
there may or may not be significant weather present at this time